Terminal Aerodrome Forecast
Issued by NWS Mt. Holly, NJ

Home | Current Version | Previous Version | Text Only | Print | Product List | Glossary On
Versions: 1 2 3 4 5 6 7 8 9 10 11 12 13 14 15 16 17 18 19 20 21
000
FTUS41 KPHI 211127
TAFRDG
TAF
KRDG 211127Z 2112/2212 VRB03KT P6SM BKN007
     FM211500 23007G16KT P6SM BKN070
     FM212200 26008KT P6SM BKN045 PROB30 2122/2202 5SM -SHRA BKN025
     FM220200 35010G16KT P6SM BKN045
     FM220800 01007KT P6SM OVC025=

USA.gov is the U.S. government's official web portal to all federal, state and local government web resources and services.